Tzoanna Vi — SYHY — position and weather

sailwx.info

Track history (hours):
 
Tides and Currents Weather Stations Pressure Air Temp Water Temp Dewpoint Dewpoint Depression Visibility Wind Speed Wind Dir Waves Ship Positions

Tzoanna Vi

Last reported at 2014-Aug-26 18:33 UTC. Time now 2014-Sep-03 05:00 UTC.
Position N 37°37' E 024°25'.

Length 84 m; draft 5.5 m.

Type: Cargo ship. MMSI: 237991700.

Date/timePositionNaut miles runAvg speedWind from/ knotsBaromVisibWave heightAir tempDewpointWater temp
2014-Aug-26 18:33N 37°37' E 024°25'25 7.2
2014-Aug-26 15:03N 37°12' E 024°19'6 7.9
2014-Aug-26 14:21N 37°06' E 024°19'6 7.6
2014-Aug-26 13:33N 37°00' E 024°19'8 7.5
2014-Aug-26 12:33N 36°53' E 024°19'7 7.3
2014-Aug-26 11:33N 36°46' E 024°19'7 7.0
2014-Aug-26 10:33N 36°39' E 024°19'2 2.1
2014-Aug-26 09:32N 36°39' E 024°21'0 0.0
2014-Aug-26 08:32N 36°39' E 024°21'0 0.0
2014-Aug-26 07:32N 36°39' E 024°21'0 0.0
2014-Aug-26 06:27N 36°39' E 024°21'0 0.0
2014-Aug-26 05:33N 36°39' E 024°21'0 0.0
2014-Aug-26 04:33N 36°39' E 024°21'4 3.3
2014-Aug-26 03:26N 36°42' E 024°18'1110.3
2014-Aug-26 02:22N 36°53' E 024°18'810.0
2014-Aug-26 01:33N 37°01' E 024°19'10 9.3
2014-Aug-26 00:28N 37°11' E 024°19'9 9.6
2014-Aug-25 23:33N 37°20' E 024°20'11 9.4
2014-Aug-25 22:26N 37°30' E 024°23'8 9.2
2014-Aug-25 21:33N 37°38' E 024°26'9 9.2
2014-Aug-25 20:32N 37°46' E 024°30'  
2014-Aug-22 19:33N 37°57' E 024°35'22 8.9
2014-Aug-22 17:03N 37°36' E 024°25'5 8.8
2014-Aug-22 16:31N 37°32' E 024°23'13 8.7
2014-Aug-22 15:05N 37°20' E 024°20'15 8.7
2014-Aug-22 13:20N 37°04' E 024°19'7 8.5
2014-Aug-22 12:33N 36°58' E 024°19'8 8.1
2014-Aug-22 11:33N 36°50' E 024°19'11 8.2
2014-Aug-22 10:14N 36°39' E 024°19'2 0.8
2014-Aug-22 07:28N 36°39' E 024°21'0 0.0
2014-Aug-22 06:22N 36°39' E 024°21'0 0.0
2014-Aug-22 05:17N 36°39' E 024°21'0 0.0
2014-Aug-22 04:32N 36°39' E 024°21'0 0.0
2014-Aug-22 03:33N 36°39' E 024°21'0 0.0
2014-Aug-22 02:33N 36°39' E 024°21'0 0.0
2014-Aug-22 01:33N 36°39' E 024°21'0 0.0
2014-Aug-22 00:33N 36°39' E 024°21'0 0.0
2014-Aug-21 23:33N 36°39' E 024°21'0 0.0
2014-Aug-21 22:33N 36°39' E 024°21'0 0.0
2014-Aug-21 21:31N 36°39' E 024°21'0 0.0
2014-Aug-21 20:32N 36°39' E 024°21'0 0.0
2014-Aug-21 19:33N 36°39' E 024°21'0 0.0
2014-Aug-21 18:33N 36°39' E 024°21'0 0.0
2014-Aug-21 17:33N 36°39' E 024°21'0 0.0
2014-Aug-21 16:33N 36°39' E 024°21'0 0.0
2014-Aug-21 15:33N 36°39' E 024°21'0 0.0
2014-Aug-21 14:33N 36°39' E 024°21'0 0.0
2014-Aug-21 13:33N 36°39' E 024°21'0 0.0
2014-Aug-21 12:33N 36°39' E 024°21'0 0.0
2014-Aug-21 11:33N 36°39' E 024°21'0 0.0
2014-Aug-21 10:33N 36°39' E 024°21'0 0.0
2014-Aug-21 09:32N 36°39' E 024°21'6 5.9
2014-Aug-21 08:33N 36°45' E 024°19'1110.6
2014-Aug-21 07:33N 36°55' E 024°19'1210.2
2014-Aug-21 06:24N 37°07' E 024°20'9 9.8
2014-Aug-21 05:32N 37°16' E 024°20'1510.6
2014-Aug-21 04:06N 37°31' E 024°23'810.2
2014-Aug-21 03:20N 37°38' E 024°25'810.0
2014-Aug-21 02:32N 37°45' E 024°29'1010.3
2014-Aug-21 01:33N 37°55' E 024°34'  
2014-Aug-18 15:25N 37°02' E 024°19'5 6.0
2014-Aug-18 14:33N 36°56' E 024°19'6 6.3
2014-Aug-18 13:33N 36°50' E 024°19'6 6.3
2014-Aug-18 12:33N 36°44' E 024°19'6 6.0
2014-Aug-18 11:33N 36°38' E 024°21'0 0.4
2014-Aug-18 10:33N 36°39' E 024°21'0 0.0
2014-Aug-17 18:33N 36°38' E 024°21'8 7.8
2014-Aug-17 17:33N 36°44' E 024°14'9 8.9
2014-Aug-17 16:33N 36°52' E 024°09'9 8.8
2014-Aug-17 15:33N 37°00' E 024°04'9 8.9
2014-Aug-17 14:32N 37°08' E 023°59'8 8.4
2014-Aug-17 13:33N 37°16' E 023°55'9 8.7
2014-Aug-17 12:32N 37°24' E 023°52'9 8.6
2014-Aug-17 11:33N 37°32' E 023°47'9 8.9
2014-Aug-17 10:33N 37°40' E 023°42'9 8.8
2014-Aug-17 09:33N 37°48' E 023°38'8 8.5
2014-Aug-17 08:33N 37°56' E 023°36'  
Track history (hours):
 
Tides and Currents Weather Stations Pressure Air Temp Water Temp Dewpoint Dewpoint Depression Visibility Wind Speed Wind Dir Waves Ship Positions

Tzoanna Vi

Last reported at 2014-Aug-26 18:33 UTC. Time now 2014-Sep-03 05:00 UTC.
Position N 37°37' E 024°25'.

Length 84 m; draft 5.5 m.

Type: Cargo ship. MMSI: 237991700.

Date/timePositionNaut miles runAvg speedWind from/ knotsBaromVisibWave heightAir tempDewpointWater temp
2014-Aug-26 18:33N 37°37' E 024°25'25 7.2
2014-Aug-26 15:03N 37°12' E 024°19'6 7.9
2014-Aug-26 14:21N 37°06' E 024°19'6 7.6
2014-Aug-26 13:33N 37°00' E 024°19'8 7.5
2014-Aug-26 12:33N 36°53' E 024°19'7 7.3
2014-Aug-26 11:33N 36°46' E 024°19'7 7.0
2014-Aug-26 10:33N 36°39' E 024°19'2 2.1
2014-Aug-26 09:32N 36°39' E 024°21'0 0.0
2014-Aug-26 08:32N 36°39' E 024°21'0 0.0
2014-Aug-26 07:32N 36°39' E 024°21'0 0.0
2014-Aug-26 06:27N 36°39' E 024°21'0 0.0
2014-Aug-26 05:33N 36°39' E 024°21'0 0.0
2014-Aug-26 04:33N 36°39' E 024°21'4 3.3
2014-Aug-26 03:26N 36°42' E 024°18'1110.3
2014-Aug-26 02:22N 36°53' E 024°18'810.0
2014-Aug-26 01:33N 37°01' E 024°19'10 9.3
2014-Aug-26 00:28N 37°11' E 024°19'9 9.6
2014-Aug-25 23:33N 37°20' E 024°20'11 9.4
2014-Aug-25 22:26N 37°30' E 024°23'8 9.2
2014-Aug-25 21:33N 37°38' E 024°26'9 9.2
2014-Aug-25 20:32N 37°46' E 024°30'  
2014-Aug-22 19:33N 37°57' E 024°35'22 8.9
2014-Aug-22 17:03N 37°36' E 024°25'5 8.8
2014-Aug-22 16:31N 37°32' E 024°23'13 8.7
2014-Aug-22 15:05N 37°20' E 024°20'15 8.7
2014-Aug-22 13:20N 37°04' E 024°19'7 8.5
2014-Aug-22 12:33N 36°58' E 024°19'8 8.1
2014-Aug-22 11:33N 36°50' E 024°19'11 8.2
2014-Aug-22 10:14N 36°39' E 024°19'2 0.8
2014-Aug-22 07:28N 36°39' E 024°21'0 0.0
2014-Aug-22 06:22N 36°39' E 024°21'0 0.0
2014-Aug-22 05:17N 36°39' E 024°21'0 0.0
2014-Aug-22 04:32N 36°39' E 024°21'0 0.0
2014-Aug-22 03:33N 36°39' E 024°21'0 0.0
2014-Aug-22 02:33N 36°39' E 024°21'0 0.0
2014-Aug-22 01:33N 36°39' E 024°21'0 0.0
2014-Aug-22 00:33N 36°39' E 024°21'0 0.0
2014-Aug-21 23:33N 36°39' E 024°21'0 0.0
2014-Aug-21 22:33N 36°39' E 024°21'0 0.0
2014-Aug-21 21:31N 36°39' E 024°21'0 0.0
2014-Aug-21 20:32N 36°39' E 024°21'0 0.0
2014-Aug-21 19:33N 36°39' E 024°21'0 0.0
2014-Aug-21 18:33N 36°39' E 024°21'0 0.0
2014-Aug-21 17:33N 36°39' E 024°21'0 0.0
2014-Aug-21 16:33N 36°39' E 024°21'0 0.0
2014-Aug-21 15:33N 36°39' E 024°21'0 0.0
2014-Aug-21 14:33N 36°39' E 024°21'0 0.0
2014-Aug-21 13:33N 36°39' E 024°21'0 0.0
2014-Aug-21 12:33N 36°39' E 024°21'0 0.0
2014-Aug-21 11:33N 36°39' E 024°21'0 0.0
2014-Aug-21 10:33N 36°39' E 024°21'0 0.0
2014-Aug-21 09:32N 36°39' E 024°21'6 5.9
2014-Aug-21 08:33N 36°45' E 024°19'1110.6
2014-Aug-21 07:33N 36°55' E 024°19'1210.2
2014-Aug-21 06:24N 37°07' E 024°20'9 9.8
2014-Aug-21 05:32N 37°16' E 024°20'1510.6
2014-Aug-21 04:06N 37°31' E 024°23'810.2
2014-Aug-21 03:20N 37°38' E 024°25'810.0
2014-Aug-21 02:32N 37°45' E 024°29'1010.3
2014-Aug-21 01:33N 37°55' E 024°34'  
2014-Aug-18 15:25N 37°02' E 024°19'5 6.0
2014-Aug-18 14:33N 36°56' E 024°19'6 6.3
2014-Aug-18 13:33N 36°50' E 024°19'6 6.3
2014-Aug-18 12:33N 36°44' E 024°19'6 6.0
2014-Aug-18 11:33N 36°38' E 024°21'0 0.4
2014-Aug-18 10:33N 36°39' E 024°21'0 0.0
2014-Aug-17 18:33N 36°38' E 024°21'8 7.8
2014-Aug-17 17:33N 36°44' E 024°14'9 8.9
2014-Aug-17 16:33N 36°52' E 024°09'9 8.8
2014-Aug-17 15:33N 37°00' E 024°04'9 8.9
2014-Aug-17 14:32N 37°08' E 023°59'8 8.4
2014-Aug-17 13:33N 37°16' E 023°55'9 8.7
2014-Aug-17 12:32N 37°24' E 023°52'9 8.6
2014-Aug-17 11:33N 37°32' E 023°47'9 8.9
2014-Aug-17 10:33N 37°40' E 023°42'9 8.8
2014-Aug-17 09:33N 37°48' E 023°38'8 8.5
2014-Aug-17 08:33N 37°56' E 023°36'  

Dump ship's entire track history